Redwood, Mississippi
Current Conditions -  °F | °C
As of 8:15 PM on Thursday 18 Dec 2014 (Local Time) from KVKS Reporting Station
Overcast Overcast  
Wind Chill: 46°   Ceiling: 3300
Heat Index: 46°   Visibility: 10mi
Dew Point: 45°   Wind: 0mph
Humidity: 93%   Direction: NA
Pressure: 30.18"   Gusts: NA
Location:  32.48°N, 90.8°W
Report Text: KVKS 190215Z AUTO 00000KT 10SM BKN033 BKN040 OVC050 08/07 A3018 RMK A01
Loading
Personal Weather Stations






























Interactive Weather Map New forecast layout! Learn more

10-Day Weather Forecast

Advertisements
Track Severe Weather on mobile